sensor_id;sensor_type;location;lat;lon;timestamp;temperature;humidity
63219;DHT22;49320;52.512;13.448;2023-04-03T00:01:12;4.60;63.20
63219;DHT22;49320;52.512;13.448;2023-04-03T00:03:38;4.60;62.50
63219;DHT22;49320;52.512;13.448;2023-04-03T00:06:05;4.60;63.30
63219;DHT22;49320;52.512;13.448;2023-04-03T00:08:33;4.60;62.50
63219;DHT22;49320;52.512;13.448;2023-04-03T00:11:01;4.60;62.50
63219;DHT22;49320;52.512;13.448;2023-04-03T00:13:29;4.60;62.40
63219;DHT22;49320;52.512;13.448;2023-04-03T00:15:56;4.60;62.40
63219;DHT22;49320;52.512;13.448;2023-04-03T00:18:23;4.60;62.40
63219;DHT22;49320;52.512;13.448;2023-04-03T00:20:50;4.60;62.40
63219;DHT22;49320;52.512;13.448;2023-04-03T00:23:17;4.60;62.40
63219;DHT22;49320;52.512;13.448;2023-04-03T00:25:44;4.60;62.30
63219;DHT22;49320;52.512;13.448;2023-04-03T00:28:11;4.60;62.70
63219;DHT22;49320;52.512;13.448;2023-04-03T00:30:38;4.60;62.40
63219;DHT22;49320;52.512;13.448;2023-04-03T00:33:05;4.40;61.50
63219;DHT22;49320;52.512;13.448;2023-04-03T00:35:34;4.50;62.30
63219;DHT22;49320;52.512;13.448;2023-04-03T00:38:01;4.60;62.30
63219;DHT22;49320;52.512;13.448;2023-04-03T00:40:34;4.50;62.20
63219;DHT22;49320;52.512;13.448;2023-04-03T00:43:11;4.60;62.40
63219;DHT22;49320;52.512;13.448;2023-04-03T00:45:51;4.60;62.30
63219;DHT22;49320;52.512;13.448;2023-04-03T00:48:32;4.60;61.60
63219;DHT22;49320;52.512;13.448;2023-04-03T00:51:04;4.50;61.50
63219;DHT22;49320;52.512;13.448;2023-04-03T00:53:40;4.50;62.20
63219;DHT22;49320;52.512;13.448;2023-04-03T00:56:13;4.50;62.20
63219;DHT22;49320;52.512;13.448;2023-04-03T00:58:57;4.50;62.30
63219;DHT22;49320;52.512;13.448;2023-04-03T01:01:28;4.50;62.30
63219;DHT22;49320;52.512;13.448;2023-04-03T01:03:59;4.50;62.30
63219;DHT22;49320;52.512;13.448;2023-04-03T01:06:29;4.50;62.30
63219;DHT22;49320;52.512;13.448;2023-04-03T01:08:59;4.50;62.20
63219;DHT22;49320;52.512;13.448;2023-04-03T01:11:27;4.50;62.30
63219;DHT22;49320;52.512;13.448;2023-04-03T01:13:54;4.40;62.20
63219;DHT22;49320;52.512;13.448;2023-04-03T01:16:21;4.40;62.30
63219;DHT22;49320;52.512;13.448;2023-04-03T01:18:48;4.40;62.30
63219;DHT22;49320;52.512;13.448;2023-04-03T01:21:34;4.40;62.40
63219;DHT22;49320;52.512;13.448;2023-04-03T01:24:27;4.40;62.50
63219;DHT22;49320;52.512;13.448;2023-04-03T01:27:08;4.20;62.40
63219;DHT22;49320;52.512;13.448;2023-04-03T01:29:37;4.40;62.50
63219;DHT22;49320;52.512;13.448;2023-04-03T01:32:04;4.40;62.50
63219;DHT22;49320;52.512;13.448;2023-04-03T01:34:31;4.30;61.90
63219;DHT22;49320;52.512;13.448;2023-04-03T01:36:58;4.40;62.60
63219;DHT22;49320;52.512;13.448;2023-04-03T01:39:25;4.30;62.60
63219;DHT22;49320;52.512;13.448;2023-04-03T01:41:52;4.30;62.60
63219;DHT22;49320;52.512;13.448;2023-04-03T01:46:47;4.30;62.00
63219;DHT22;49320;52.512;13.448;2023-04-03T01:49:14;4.30;62.20
63219;DHT22;49320;52.512;13.448;2023-04-03T01:51:41;4.30;62.80
63219;DHT22;49320;52.512;13.448;2023-04-03T01:54:08;4.30;62.80
63219;DHT22;49320;52.512;13.448;2023-04-03T01:56:35;4.30;62.80
63219;DHT22;49320;52.512;13.448;2023-04-03T01:59:02;4.30;62.90
63219;DHT22;49320;52.512;13.448;2023-04-03T02:01:28;4.30;62.80
63219;DHT22;49320;52.512;13.448;2023-04-03T02:03:55;4.20;62.90
63219;DHT22;49320;52.512;13.448;2023-04-03T02:06:22;4.20;62.90
63219;DHT22;49320;52.512;13.448;2023-04-03T02:08:49;4.20;63.00
63219;DHT22;49320;52.512;13.448;2023-04-03T02:11:16;4.20;63.00
63219;DHT22;49320;52.512;13.448;2023-04-03T02:13:43;4.20;63.10
63219;DHT22;49320;52.512;13.448;2023-04-03T02:16:10;4.20;63.20
63219;DHT22;49320;52.512;13.448;2023-04-03T02:18:39;4.10;63.10
63219;DHT22;49320;52.512;13.448;2023-04-03T02:21:06;4.10;63.10
63219;DHT22;49320;52.512;13.448;2023-04-03T02:23:33;4.10;63.30
63219;DHT22;49320;52.512;13.448;2023-04-03T02:26:04;4.10;63.40
63219;DHT22;49320;52.512;13.448;2023-04-03T02:28:36;4.00;63.40
63219;DHT22;49320;52.512;13.448;2023-04-03T02:31:04;4.00;63.50
63219;DHT22;49320;52.512;13.448;2023-04-03T02:33:33;4.00;63.80
63219;DHT22;49320;52.512;13.448;2023-04-03T02:36:04;4.00;63.70
63219;DHT22;49320;52.512;13.448;2023-04-03T02:38:32;4.00;63.80
63219;DHT22;49320;52.512;13.448;2023-04-03T02:41:01;3.90;63.10
63219;DHT22;49320;52.512;13.448;2023-04-03T02:43:32;3.90;63.80
63219;DHT22;49320;52.512;13.448;2023-04-03T02:45:59;3.90;63.70
63219;DHT22;49320;52.512;13.448;2023-04-03T02:48:26;3.90;63.80
63219;DHT22;49320;52.512;13.448;2023-04-03T02:50:55;3.90;63.80
63219;DHT22;49320;52.512;13.448;2023-04-03T02:53:22;3.90;63.90
63219;DHT22;49320;52.512;13.448;2023-04-03T02:55:49;3.90;64.10
63219;DHT22;49320;52.512;13.448;2023-04-03T02:58:16;3.80;63.90
63219;DHT22;49320;52.512;13.448;2023-04-03T03:00:42;3.80;64.00
63219;DHT22;49320;52.512;13.448;2023-04-03T03:03:09;3.70;63.30
63219;DHT22;49320;52.512;13.448;2023-04-03T03:08:03;3.80;63.40
63219;DHT22;49320;52.512;13.448;2023-04-03T03:10:30;3.70;63.90
63219;DHT22;49320;52.512;13.448;2023-04-03T03:12:57;3.70;64.20
63219;DHT22;49320;52.512;13.448;2023-04-03T03:15:24;3.70;64.30
63219;DHT22;49320;52.512;13.448;2023-04-03T03:17:51;3.70;64.40
63219;DHT22;49320;52.512;13.448;2023-04-03T03:20:18;3.70;64.30
63219;DHT22;49320;52.512;13.448;2023-04-03T03:22:44;3.60;64.30
63219;DHT22;49320;52.512;13.448;2023-04-03T03:25:11;3.60;63.80
63219;DHT22;49320;52.512;13.448;2023-04-03T03:27:38;3.60;64.40
63219;DHT22;49320;52.512;13.448;2023-04-03T03:30:05;3.60;64.00
63219;DHT22;49320;52.512;13.448;2023-04-03T03:32:33;3.60;64.50
63219;DHT22;49320;52.512;13.448;2023-04-03T03:37:27;3.50;64.00
63219;DHT22;49320;52.512;13.448;2023-04-03T03:39:54;3.50;64.80
63219;DHT22;49320;52.512;13.448;2023-04-03T03:42:21;3.50;64.60
63219;DHT22;49320;52.512;13.448;2023-04-03T03:44:48;3.50;64.90
63219;DHT22;49320;52.512;13.448;2023-04-03T03:47:15;3.50;65.00
63219;DHT22;49320;52.512;13.448;2023-04-03T03:49:42;3.50;65.60
63219;DHT22;49320;52.512;13.448;2023-04-03T03:52:09;3.50;64.90
63219;DHT22;49320;52.512;13.448;2023-04-03T03:54:37;3.40;64.30
63219;DHT22;49320;52.512;13.448;2023-04-03T03:57:05;3.40;64.70
63219;DHT22;49320;52.512;13.448;2023-04-03T03:59:32;3.40;64.50
63219;DHT22;49320;52.512;13.448;2023-04-03T04:01:59;3.40;65.20
63219;DHT22;49320;52.512;13.448;2023-04-03T04:04:26;3.40;65.90
63219;DHT22;49320;52.512;13.448;2023-04-03T04:06:52;3.40;65.30
63219;DHT22;49320;52.512;13.448;2023-04-03T04:09:20;3.40;65.30
63219;DHT22;49320;52.512;13.448;2023-04-03T04:11:46;3.30;64.50
63219;DHT22;49320;52.512;13.448;2023-04-03T04:14:13;3.30;65.20
63219;DHT22;49320;52.512;13.448;2023-04-03T04:16:40;3.30;64.60
63219;DHT22;49320;52.512;13.448;2023-04-03T04:19:07;3.30;65.40
63219;DHT22;49320;52.512;13.448;2023-04-03T04:21:34;3.30;65.40
63219;DHT22;49320;52.512;13.448;2023-04-03T04:24:01;3.30;64.80
63219;DHT22;49320;52.512;13.448;2023-04-03T04:26:28;3.30;65.70
63219;DHT22;49320;52.512;13.448;2023-04-03T04:28:55;3.30;65.70
63219;DHT22;49320;52.512;13.448;2023-04-03T04:31:22;3.20;65.60
63219;DHT22;49320;52.512;13.448;2023-04-03T04:33:49;3.20;65.70
63219;DHT22;49320;52.512;13.448;2023-04-03T04:36:15;3.20;65.90
63219;DHT22;49320;52.512;13.448;2023-04-03T04:41:10;3.20;65.30
63219;DHT22;49320;52.512;13.448;2023-04-03T04:43:36;3.20;66.00
63219;DHT22;49320;52.512;13.448;2023-04-03T04:46:08;3.20;66.20
63219;DHT22;49320;52.512;13.448;2023-04-03T04:48:38;3.20;66.40
63219;DHT22;49320;52.512;13.448;2023-04-03T04:51:05;3.20;66.30
63219;DHT22;49320;52.512;13.448;2023-04-03T04:53:31;3.20;66.40
63219;DHT22;49320;52.512;13.448;2023-04-03T04:55:59;3.20;66.50
63219;DHT22;49320;52.512;13.448;2023-04-03T04:58:26;3.20;66.50
63219;DHT22;49320;52.512;13.448;2023-04-03T05:01:06;3.20;66.50
63219;DHT22;49320;52.512;13.448;2023-04-03T05:03:35;3.20;66.80
63219;DHT22;49320;52.512;13.448;2023-04-03T05:06:03;3.20;66.60
63219;DHT22;49320;52.512;13.448;2023-04-03T05:08:31;3.30;66.70
63219;DHT22;49320;52.512;13.448;2023-04-03T05:10:58;3.30;66.70
63219;DHT22;49320;52.512;13.448;2023-04-03T05:13:25;3.30;67.50
63219;DHT22;49320;52.512;13.448;2023-04-03T05:15:52;3.30;66.90
63219;DHT22;49320;52.512;13.448;2023-04-03T05:18:19;3.30;66.90
63219;DHT22;49320;52.512;13.448;2023-04-03T05:20:48;3.30;67.00
63219;DHT22;49320;52.512;13.448;2023-04-03T05:23:16;3.40;67.20
63219;DHT22;49320;52.512;13.448;2023-04-03T05:25:44;3.40;67.00
63219;DHT22;49320;52.512;13.448;2023-04-03T05:28:13;3.40;67.10
63219;DHT22;49320;52.512;13.448;2023-04-03T05:30:40;3.40;67.10
63219;DHT22;49320;52.512;13.448;2023-04-03T05:33:07;3.50;67.20
63219;DHT22;49320;52.512;13.448;2023-04-03T05:35:36;3.50;67.20
63219;DHT22;49320;52.512;13.448;2023-04-03T05:38:07;3.50;67.80
63219;DHT22;49320;52.512;13.448;2023-04-03T05:40:34;3.50;67.00
63219;DHT22;49320;52.512;13.448;2023-04-03T05:43:01;3.60;67.10
63219;DHT22;49320;52.512;13.448;2023-04-03T05:45:28;3.70;66.80
63219;DHT22;49320;52.512;13.448;2023-04-03T05:47:55;3.60;67.10
63219;DHT22;49320;52.512;13.448;2023-04-03T05:50:22;3.70;67.10
63219;DHT22;49320;52.512;13.448;2023-04-03T05:52:50;3.70;66.90
63219;DHT22;49320;52.512;13.448;2023-04-03T05:55:21;3.60;66.10
63219;DHT22;49320;52.512;13.448;2023-04-03T05:57:48;3.90;66.90
63219;DHT22;49320;52.512;13.448;2023-04-03T06:00:15;3.80;66.70
63219;DHT22;49320;52.512;13.448;2023-04-03T06:02:43;3.90;66.90
63219;DHT22;49320;52.512;13.448;2023-04-03T06:05:10;3.90;66.80
63219;DHT22;49320;52.512;13.448;2023-04-03T06:07:39;3.90;66.50
63219;DHT22;49320;52.512;13.448;2023-04-03T06:10:07;3.90;66.40
63219;DHT22;49320;52.512;13.448;2023-04-03T06:12:35;4.00;66.40
63219;DHT22;49320;52.512;13.448;2023-04-03T06:15:02;4.00;66.40
63219;DHT22;49320;52.512;13.448;2023-04-03T06:17:30;4.00;66.50
63219;DHT22;49320;52.512;13.448;2023-04-03T06:19:57;4.10;66.50
63219;DHT22;49320;52.512;13.448;2023-04-03T06:22:24;4.10;66.40
63219;DHT22;49320;52.512;13.448;2023-04-03T06:24:52;4.10;65.70
63219;DHT22;49320;52.512;13.448;2023-04-03T06:27:19;4.10;66.30
63219;DHT22;49320;52.512;13.448;2023-04-03T06:29:45;4.30;66.30
63219;DHT22;49320;52.512;13.448;2023-04-03T06:32:12;4.30;66.20
63219;DHT22;49320;52.512;13.448;2023-04-03T06:34:39;4.40;66.10
63219;DHT22;49320;52.512;13.448;2023-04-03T06:37:06;4.40;65.90
63219;DHT22;49320;52.512;13.448;2023-04-03T06:39:33;4.50;66.00
63219;DHT22;49320;52.512;13.448;2023-04-03T06:41:59;4.50;65.70
63219;DHT22;49320;52.512;13.448;2023-04-03T06:44:27;4.60;65.50
63219;DHT22;49320;52.512;13.448;2023-04-03T06:46:54;4.70;65.30
63219;DHT22;49320;52.512;13.448;2023-04-03T06:49:21;4.70;65.10
63219;DHT22;49320;52.512;13.448;2023-04-03T06:51:48;4.70;64.80
63219;DHT22;49320;52.512;13.448;2023-04-03T06:54:14;4.80;64.90
63219;DHT22;49320;52.512;13.448;2023-04-03T06:56:41;4.80;64.60
63219;DHT22;49320;52.512;13.448;2023-04-03T06:59:10;4.90;64.10
63219;DHT22;49320;52.512;13.448;2023-04-03T07:01:39;4.90;64.20
63219;DHT22;49320;52.512;13.448;2023-04-03T07:04:07;5.00;64.20
63219;DHT22;49320;52.512;13.448;2023-04-03T07:06:35;5.00;63.50
63219;DHT22;49320;52.512;13.448;2023-04-03T07:09:02;5.00;63.00
63219;DHT22;49320;52.512;13.448;2023-04-03T07:11:29;5.10;63.10
63219;DHT22;49320;52.512;13.448;2023-04-03T07:13:57;5.10;63.10
63219;DHT22;49320;52.512;13.448;2023-04-03T07:16:24;5.20;61.40
63219;DHT22;49320;52.512;13.448;2023-04-03T07:21:18;5.30;62.00
63219;DHT22;49320;52.512;13.448;2023-04-03T07:23:45;5.40;62.70
63219;DHT22;49320;52.512;13.448;2023-04-03T07:26:12;5.40;62.10
63219;DHT22;49320;52.512;13.448;2023-04-03T07:28:39;5.40;61.10
63219;DHT22;49320;52.512;13.448;2023-04-03T07:31:11;5.60;61.90
63219;DHT22;49320;52.512;13.448;2023-04-03T07:33:40;5.70;61.20
63219;DHT22;49320;52.512;13.448;2023-04-03T07:36:09;5.80;61.70
63219;DHT22;49320;52.512;13.448;2023-04-03T07:41:04;6.00;59.50
63219;DHT22;49320;52.512;13.448;2023-04-03T07:43:32;6.00;60.30
63219;DHT22;49320;52.512;13.448;2023-04-03T07:46:00;6.10;59.50
63219;DHT22;49320;52.512;13.448;2023-04-03T07:48:27;6.20;60.00
63219;DHT22;49320;52.512;13.448;2023-04-03T07:50:59;6.20;60.10
63219;DHT22;49320;52.512;13.448;2023-04-03T07:53:28;6.30;59.60
63219;DHT22;49320;52.512;13.448;2023-04-03T07:55:57;6.30;59.30
63219;DHT22;49320;52.512;13.448;2023-04-03T07:58:24;6.40;59.40
63219;DHT22;49320;52.512;13.448;2023-04-03T08:00:52;6.40;58.80
63219;DHT22;49320;52.512;13.448;2023-04-03T08:03:19;6.50;58.20
63219;DHT22;49320;52.512;13.448;2023-04-03T08:05:48;6.50;58.50
63219;DHT22;49320;52.512;13.448;2023-04-03T08:08:18;6.60;58.30
63219;DHT22;49320;52.512;13.448;2023-04-03T08:10:50;6.60;58.20
63219;DHT22;49320;52.512;13.448;2023-04-03T08:13:18;6.60;57.90
63219;DHT22;49320;52.512;13.448;2023-04-03T08:15:46;6.70;58.40
63219;DHT22;49320;52.512;13.448;2023-04-03T08:18:14;6.80;57.80
63219;DHT22;49320;52.512;13.448;2023-04-03T08:20:43;6.90;57.70
63219;DHT22;49320;52.512;13.448;2023-04-03T08:23:10;6.90;58.10
63219;DHT22;49320;52.512;13.448;2023-04-03T08:25:39;6.90;57.50
63219;DHT22;49320;52.512;13.448;2023-04-03T08:28:07;7.00;57.60
63219;DHT22;49320;52.512;13.448;2023-04-03T08:30:35;7.10;57.80
63219;DHT22;49320;52.512;13.448;2023-04-03T08:33:03;7.10;57.10
63219;DHT22;49320;52.512;13.448;2023-04-03T08:35:30;7.20;57.20
63219;DHT22;49320;52.512;13.448;2023-04-03T08:37:57;7.20;56.80
63219;DHT22;49320;52.512;13.448;2023-04-03T08:40:24;7.20;56.00
63219;DHT22;49320;52.512;13.448;2023-04-03T08:45:49;7.20;56.50
63219;DHT22;49320;52.512;13.448;2023-04-03T08:48:29;7.30;55.20
63219;DHT22;49320;52.512;13.448;2023-04-03T08:51:03;7.30;57.00
63219;DHT22;49320;52.512;13.448;2023-04-03T08:53:42;7.30;56.20
63219;DHT22;49320;52.512;13.448;2023-04-03T08:56:18;7.40;56.30
63219;DHT22;49320;52.512;13.448;2023-04-03T08:58:58;7.50;56.00
63219;DHT22;49320;52.512;13.448;2023-04-03T09:01:39;7.40;55.50
63219;DHT22;49320;52.512;13.448;2023-04-03T09:04:12;7.20;55.50
63219;DHT22;49320;52.512;13.448;2023-04-03T09:06:49;7.40;55.90
63219;DHT22;49320;52.512;13.448;2023-04-03T09:09:36;7.40;55.50
63219;DHT22;49320;52.512;13.448;2023-04-03T09:14:57;7.50;55.10
63219;DHT22;49320;52.512;13.448;2023-04-03T09:17:53;7.50;55.00
63219;DHT22;49320;52.512;13.448;2023-04-03T09:21:05;7.50;54.80
63219;DHT22;49320;52.512;13.448;2023-04-03T09:23:50;7.50;55.30
63219;DHT22;49320;52.512;13.448;2023-04-03T09:26:30;7.60;55.00
63219;DHT22;49320;52.512;13.448;2023-04-03T09:29:05;7.60;54.30
63219;DHT22;49320;52.512;13.448;2023-04-03T09:31:39;7.70;54.40
63219;DHT22;49320;52.512;13.448;2023-04-03T09:34:22;7.70;54.00
63219;DHT22;49320;52.512;13.448;2023-04-03T09:36:55;7.70;53.30
63219;DHT22;49320;52.512;13.448;2023-04-03T09:39:25;7.80;53.70
63219;DHT22;49320;52.512;13.448;2023-04-03T09:42:24;7.80;53.90
63219;DHT22;49320;52.512;13.448;2023-04-03T09:45:00;7.90;52.50
63219;DHT22;49320;52.512;13.448;2023-04-03T09:47:34;7.90;53.30
63219;DHT22;49320;52.512;13.448;2023-04-03T09:50:20;8.10;52.70
63219;DHT22;49320;52.512;13.448;2023-04-03T09:52:50;8.10;52.00
63219;DHT22;49320;52.512;13.448;2023-04-03T09:55:24;8.20;52.40
63219;DHT22;49320;52.512;13.448;2023-04-03T09:58:00;8.20;52.50
63219;DHT22;49320;52.512;13.448;2023-04-03T10:00:39;8.40;52.10
63219;DHT22;49320;52.512;13.448;2023-04-03T10:03:34;8.40;51.50
63219;DHT22;49320;52.512;13.448;2023-04-03T10:06:03;8.40;53.30
63219;DHT22;49320;52.512;13.448;2023-04-03T10:08:35;8.40;52.70
63219;DHT22;49320;52.512;13.448;2023-04-03T10:11:11;8.40;53.20
63219;DHT22;49320;52.512;13.448;2023-04-03T10:13:53;8.40;52.50
63219;DHT22;49320;52.512;13.448;2023-04-03T10:19:32;8.50;52.60
63219;DHT22;49320;52.512;13.448;2023-04-03T10:22:30;8.50;52.50
63219;DHT22;49320;52.512;13.448;2023-04-03T10:25:19;8.60;51.40
63219;DHT22;49320;52.512;13.448;2023-04-03T10:31:04;8.60;51.50
63219;DHT22;49320;52.512;13.448;2023-04-03T10:34:10;8.60;51.70
63219;DHT22;49320;52.512;13.448;2023-04-03T10:39:35;8.70;52.50
63219;DHT22;49320;52.512;13.448;2023-04-03T10:42:38;8.80;51.90
63219;DHT22;49320;52.512;13.448;2023-04-03T10:45:31;8.90;51.90
63219;DHT22;49320;52.512;13.448;2023-04-03T10:48:33;8.90;51.90
63219;DHT22;49320;52.512;13.448;2023-04-03T10:54:52;9.10;50.40
63219;DHT22;49320;52.512;13.448;2023-04-03T10:57:28;9.20;50.00
63219;DHT22;49320;52.512;13.448;2023-04-03T10:59:59;9.20;50.50
63219;DHT22;49320;52.512;13.448;2023-04-03T11:02:51;9.20;50.80
63219;DHT22;49320;52.512;13.448;2023-04-03T11:08:38;9.30;51.20
63219;DHT22;49320;52.512;13.448;2023-04-03T11:11:32;9.20;49.90
63219;DHT22;49320;52.512;13.448;2023-04-03T11:17:04;9.40;51.70
63219;DHT22;49320;52.512;13.448;2023-04-03T11:22:43;9.40;50.50
63219;DHT22;49320;52.512;13.448;2023-04-03T11:25:23;9.50;50.50
63219;DHT22;49320;52.512;13.448;2023-04-03T11:28:05;9.50;50.90
63219;DHT22;49320;52.512;13.448;2023-04-03T11:34:05;9.50;49.90
63219;DHT22;49320;52.512;13.448;2023-04-03T11:36:46;9.40;50.50
63219;DHT22;49320;52.512;13.448;2023-04-03T11:39:30;9.40;50.40
63219;DHT22;49320;52.512;13.448;2023-04-03T11:42:32;9.40;50.10
63219;DHT22;49320;52.512;13.448;2023-04-03T11:50:40;9.40;49.30
63219;DHT22;49320;52.512;13.448;2023-04-03T11:53:35;9.40;50.40
63219;DHT22;49320;52.512;13.448;2023-04-03T12:01:46;9.40;50.50
63219;DHT22;49320;52.512;13.448;2023-04-03T12:04:17;9.40;50.80
63219;DHT22;49320;52.512;13.448;2023-04-03T12:09:27;9.40;51.10
63219;DHT22;49320;52.512;13.448;2023-04-03T12:11:57;9.40;50.80
63219;DHT22;49320;52.512;13.448;2023-04-03T12:14:28;9.40;50.10
63219;DHT22;49320;52.512;13.448;2023-04-03T12:16:56;9.40;50.20
63219;DHT22;49320;52.512;13.448;2023-04-03T12:19:37;9.40;49.70
63219;DHT22;49320;52.512;13.448;2023-04-03T12:22:12;9.40;50.40
63219;DHT22;49320;52.512;13.448;2023-04-03T12:24:44;9.30;49.70
63219;DHT22;49320;52.512;13.448;2023-04-03T12:27:27;9.30;50.40
63219;DHT22;49320;52.512;13.448;2023-04-03T12:30:00;9.30;50.20
63219;DHT22;49320;52.512;13.448;2023-04-03T12:33:11;9.20;49.70
63219;DHT22;49320;52.512;13.448;2023-04-03T12:36:08;9.20;50.00
63219;DHT22;49320;52.512;13.448;2023-04-03T12:39:04;9.10;49.60
63219;DHT22;49320;52.512;13.448;2023-04-03T12:42:39;8.90;49.50
63219;DHT22;49320;52.512;13.448;2023-04-03T12:45:09;9.10;50.00
63219;DHT22;49320;52.512;13.448;2023-04-03T12:47:53;10.30;50.10
63219;DHT22;49320;52.512;13.448;2023-04-03T12:50:27;9.20;49.70
63219;DHT22;49320;52.512;13.448;2023-04-03T12:53:00;9.10;49.50
63219;DHT22;49320;52.512;13.448;2023-04-03T12:55:32;9.10;49.40
63219;DHT22;49320;52.512;13.448;2023-04-03T12:58:22;9.10;49.50
63219;DHT22;49320;52.512;13.448;2023-04-03T13:01:09;9.10;49.60
63219;DHT22;49320;52.512;13.448;2023-04-03T13:03:40;9.10;49.20
63219;DHT22;49320;52.512;13.448;2023-04-03T13:06:21;9.10;49.70
63219;DHT22;49320;52.512;13.448;2023-04-03T13:08:56;9.10;50.10
63219;DHT22;49320;52.512;13.448;2023-04-03T13:11:40;9.10;49.50
63219;DHT22;49320;52.512;13.448;2023-04-03T13:14:19;9.10;49.40
63219;DHT22;49320;52.512;13.448;2023-04-03T13:17:09;9.10;49.20
63219;DHT22;49320;52.512;13.448;2023-04-03T13:19:39;9.20;49.40
63219;DHT22;49320;52.512;13.448;2023-04-03T13:22:30;9.10;49.20
63219;DHT22;49320;52.512;13.448;2023-04-03T13:25:07;9.10;49.80
63219;DHT22;49320;52.512;13.448;2023-04-03T13:27:38;9.10;49.90
63219;DHT22;49320;52.512;13.448;2023-04-03T13:30:06;9.10;49.70
63219;DHT22;49320;52.512;13.448;2023-04-03T13:32:46;9.10;49.30
63219;DHT22;49320;52.512;13.448;2023-04-03T13:35:37;9.10;49.90
63219;DHT22;49320;52.512;13.448;2023-04-03T13:38:22;9.10;49.40
63219;DHT22;49320;52.512;13.448;2023-04-03T13:40:54;9.10;49.60
63219;DHT22;49320;52.512;13.448;2023-04-03T13:43:29;9.10;49.90
63219;DHT22;49320;52.512;13.448;2023-04-03T13:46:22;9.10;49.80
63219;DHT22;49320;52.512;13.448;2023-04-03T13:48:54;9.00;49.80
63219;DHT22;49320;52.512;13.448;2023-04-03T13:51:29;9.00;50.10
63219;DHT22;49320;52.512;13.448;2023-04-03T13:54:01;9.00;50.00
63219;DHT22;49320;52.512;13.448;2023-04-03T13:56:44;9.00;50.20
63219;DHT22;49320;52.512;13.448;2023-04-03T14:07:15;9.00;50.00
63219;DHT22;49320;52.512;13.448;2023-04-03T14:09:44;8.90;50.20
63219;DHT22;49320;52.512;13.448;2023-04-03T14:12:27;8.90;50.00
63219;DHT22;49320;52.512;13.448;2023-04-03T14:15:04;8.90;50.50
63219;DHT22;49320;52.512;13.448;2023-04-03T14:17:38;8.90;50.10
63219;DHT22;49320;52.512;13.448;2023-04-03T14:20:06;8.90;50.20
63219;DHT22;49320;52.512;13.448;2023-04-03T14:22:34;8.90;50.00
63219;DHT22;49320;52.512;13.448;2023-04-03T14:25:02;9.00;50.10
63219;DHT22;49320;52.512;13.448;2023-04-03T14:27:37;9.00;50.40
63219;DHT22;49320;52.512;13.448;2023-04-03T14:30:18;9.00;50.10
63219;DHT22;49320;52.512;13.448;2023-04-03T14:32:52;9.00;50.30
63219;DHT22;49320;52.512;13.448;2023-04-03T14:35:20;9.00;50.50
63219;DHT22;49320;52.512;13.448;2023-04-03T14:37:48;9.10;50.50
63219;DHT22;49320;52.512;13.448;2023-04-03T14:40:24;9.20;50.10
63219;DHT22;49320;52.512;13.448;2023-04-03T14:42:53;9.10;50.40
63219;DHT22;49320;52.512;13.448;2023-04-03T14:45:23;9.10;50.20
63219;DHT22;49320;52.512;13.448;2023-04-03T14:47:52;9.00;50.20
63219;DHT22;49320;52.512;13.448;2023-04-03T14:50:24;9.10;50.40
63219;DHT22;49320;52.512;13.448;2023-04-03T14:52:54;9.00;50.10
63219;DHT22;49320;52.512;13.448;2023-04-03T14:55:24;9.10;50.40
63219;DHT22;49320;52.512;13.448;2023-04-03T14:57:52;9.00;50.50
63219;DHT22;49320;52.512;13.448;2023-04-03T15:00:21;9.00;50.60
63219;DHT22;49320;52.512;13.448;2023-04-03T15:02:49;9.10;50.30
63219;DHT22;49320;52.512;13.448;2023-04-03T15:05:16;8.90;50.80
63219;DHT22;49320;52.512;13.448;2023-04-03T15:07:47;8.90;50.80
63219;DHT22;49320;52.512;13.448;2023-04-03T15:10:22;8.80;51.00
63219;DHT22;49320;52.512;13.448;2023-04-03T15:12:51;8.80;51.20
63219;DHT22;49320;52.512;13.448;2023-04-03T15:15:20;8.80;51.00
63219;DHT22;49320;52.512;13.448;2023-04-03T15:17:54;8.80;51.30
63219;DHT22;49320;52.512;13.448;2023-04-03T15:20:26;8.70;51.20
63219;DHT22;49320;52.512;13.448;2023-04-03T15:22:54;8.60;51.20
63219;DHT22;49320;52.512;13.448;2023-04-03T15:25:23;8.60;51.40
63219;DHT22;49320;52.512;13.448;2023-04-03T15:27:53;8.60;51.30
63219;DHT22;49320;52.512;13.448;2023-04-03T15:30:21;8.50;51.50
63219;DHT22;49320;52.512;13.448;2023-04-03T15:32:49;8.50;51.60
63219;DHT22;49320;52.512;13.448;2023-04-03T15:35:16;8.50;51.90
63219;DHT22;49320;52.512;13.448;2023-04-03T15:37:43;8.40;51.90
63219;DHT22;49320;52.512;13.448;2023-04-03T15:40:10;8.30;52.00
63219;DHT22;49320;52.512;13.448;2023-04-03T15:42:38;8.30;51.80
63219;DHT22;49320;52.512;13.448;2023-04-03T15:45:06;8.30;52.30
63219;DHT22;49320;52.512;13.448;2023-04-03T15:47:34;8.20;52.30
63219;DHT22;49320;52.512;13.448;2023-04-03T15:50:01;8.30;52.40
63219;DHT22;49320;52.512;13.448;2023-04-03T15:52:28;8.20;52.40
63219;DHT22;49320;52.512;13.448;2023-04-03T15:54:55;8.20;52.40
63219;DHT22;49320;52.512;13.448;2023-04-03T15:57:21;8.20;52.00
63219;DHT22;49320;52.512;13.448;2023-04-03T16:02:20;8.20;52.00
63219;DHT22;49320;52.512;13.448;2023-04-03T16:04:47;8.20;52.40
63219;DHT22;49320;52.512;13.448;2023-04-03T16:07:14;8.10;52.20
63219;DHT22;49320;52.512;13.448;2023-04-03T16:09:41;8.10;52.10
63219;DHT22;49320;52.512;13.448;2023-04-03T16:12:08;8.00;52.50
63219;DHT22;49320;52.512;13.448;2023-04-03T16:14:35;8.00;52.50
63219;DHT22;49320;52.512;13.448;2023-04-03T16:17:02;8.00;53.20
63219;DHT22;49320;52.512;13.448;2023-04-03T16:19:29;8.10;52.90
63219;DHT22;49320;52.512;13.448;2023-04-03T16:21:56;8.10;52.70
63219;DHT22;49320;52.512;13.448;2023-04-03T16:24:24;8.20;52.70
63219;DHT22;49320;52.512;13.448;2023-04-03T16:26:51;8.30;52.70
63219;DHT22;49320;52.512;13.448;2023-04-03T16:29:19;8.30;52.70
63219;DHT22;49320;52.512;13.448;2023-04-03T16:31:46;8.40;52.60
63219;DHT22;49320;52.512;13.448;2023-04-03T16:34:13;8.40;52.60
63219;DHT22;49320;52.512;13.448;2023-04-03T16:36:40;8.30;52.40
63219;DHT22;49320;52.512;13.448;2023-04-03T16:39:07;8.50;52.40
63219;DHT22;49320;52.512;13.448;2023-04-03T16:41:36;8.50;52.30
63219;DHT22;49320;52.512;13.448;2023-04-03T16:44:03;8.50;52.40
63219;DHT22;49320;52.512;13.448;2023-04-03T16:46:30;8.50;52.30
63219;DHT22;49320;52.512;13.448;2023-04-03T16:48:57;8.40;52.40
63219;DHT22;49320;52.512;13.448;2023-04-03T16:51:24;8.40;52.40
63219;DHT22;49320;52.512;13.448;2023-04-03T16:53:51;8.20;52.10
63219;DHT22;49320;52.512;13.448;2023-04-03T16:56:18;8.30;52.60
63219;DHT22;49320;52.512;13.448;2023-04-03T16:58:46;8.30;52.00
63219;DHT22;49320;52.512;13.448;2023-04-03T17:01:15;8.20;51.90
63219;DHT22;49320;52.512;13.448;2023-04-03T17:03:44;8.20;52.70
63219;DHT22;49320;52.512;13.448;2023-04-03T17:06:16;8.30;53.00
63219;DHT22;49320;52.512;13.448;2023-04-03T17:08:46;8.20;53.00